Nearby METAR Reports

 

NZAA - Auckland Intl Ar, New Zealand
Distance from station: SW 18km
Updated: 23/06/2024 07:00
Partly cloudy
Partly cloudy
 Wind from NNE
Wind: NNE 9 km/h
Temperature: 13°C
Dew Point: 13°C
Humidity: 100%
Barometer: 1014 hPa
Clouds: Partly cloudy
Visibility: 10 km
Cloud details: Few Clouds 183 m
Partly cloudy 2743 m
2024/06/22 19:00 NZAA 221900Z AUTO 03005KT 9999 FEW006/// SCT090/// 13/13 Q1014
NZWP - Whenuapai (nz-Af, New Zealand
Distance from station: WNW 30km
Updated: 09/11/2022 11:00
NOT Current
Mostly cloudy
Mostly cloudy
 Wind from SSE
Wind: SSE 15 km/h
Temperature: 17°C
Dew Point: 14°C
Humidity: 83%
Barometer: 1012 hPa
Clouds: Mostly cloudy
Cloud details: Few Clouds 457 m
Partly cloudy 762 m
Mostly cloudy 1219 m
2022/11/08 22:00 NZWP 082200Z 16008KT 120V200 20KM FEW015 SCT025 BKN040 17/14 Q1012 NOSIG
 
NZWN - Wellington Intl, New Zealand
Distance from station: S 493km
Updated: 23/06/2024 07:00
Mostly cloudy
Mostly cloudy
 Wind from N
Wind: N 6 km/h
Temperature: 11°C
Dew Point: 8°C
Humidity: 82%
Barometer: 1015 hPa
Clouds: Mostly cloudy
Visibility: 10 km
Cloud details: Partly cloudy 1524 m
Mostly cloudy 1981 m
2024/06/22 19:00 NZWN 221900Z AUTO 01003KT 9999 SCT050/// BKN065/// 11/08 Q1015
NZCH - Christchurch Int, New Zealand
Distance from station: SSW 759km
Updated: 23/06/2024 07:00
Light rain, Overcast
Light rain, Overcast
 Wind from SW
Wind: SW 15 km/h
Temperature: 6°C
Wind Chill: 3°C
Dew Point: 6°C
Humidity: 100%
Barometer: 1015 hPa
Summary: Light rain
Clouds: Overcast
Visibility: 10 km
Cloud details: Mostly cloudy 122 m
Overcast 457 m
2024/06/22 19:00 NZCH 221900Z AUTO 22008KT 9999 -RA BKN004/// OVC015/// 06/06 Q1015
 
YSNF - Norfolk Island A, Australia
Distance from station: NW 1091km
Updated: 23/06/2024 07:00
Overcast
Overcast
 Wind from NW
Wind: NW 13 km/h
Temperature: 19°C
Dew Point: 15°C
Humidity: 78%
Barometer: 1017 hPa
Clouds: Overcast
Visibility: 10 km
Cloud details: Overcast 1676 m
2024/06/22 19:00 YSNF 221900Z AUTO 31007KT 9999 // OVC055 19/15 Q1017 RF00.0/000.0